sensor_id;sensor_type;location;lat;lon;timestamp;temperature;humidity
18593;DHT22;9426;54.118;17.948;2022-07-26T00:04:23;20.40;99.90
18593;DHT22;9426;54.118;17.948;2022-07-26T00:09:48;20.30;99.90
18593;DHT22;9426;54.118;17.948;2022-07-26T00:15:11;20.30;99.90
18593;DHT22;9426;54.118;17.948;2022-07-26T00:20:35;20.00;99.90
18593;DHT22;9426;54.118;17.948;2022-07-26T00:26:00;19.60;99.90
18593;DHT22;9426;54.118;17.948;2022-07-26T00:31:24;19.40;99.90
18593;DHT22;9426;54.118;17.948;2022-07-26T00:36:47;19.20;99.90
18593;DHT22;9426;54.118;17.948;2022-07-26T00:42:12;19.10;99.90
18593;DHT22;9426;54.118;17.948;2022-07-26T00:47:36;19.10;99.90
18593;DHT22;9426;54.118;17.948;2022-07-26T00:53:00;19.00;99.90
18593;DHT22;9426;54.118;17.948;2022-07-26T00:58:25;19.00;99.90
18593;DHT22;9426;54.118;17.948;2022-07-26T01:03:50;19.10;99.90
18593;DHT22;9426;54.118;17.948;2022-07-26T01:09:14;19.10;99.90
18593;DHT22;9426;54.118;17.948;2022-07-26T01:14:41;19.20;99.90
18593;DHT22;9426;54.118;17.948;2022-07-26T01:20:07;19.30;99.90
18593;DHT22;9426;54.118;17.948;2022-07-26T01:25:35;19.20;99.90
18593;DHT22;9426;54.118;17.948;2022-07-26T01:30:59;19.20;99.90
18593;DHT22;9426;54.118;17.948;2022-07-26T01:36:22;19.00;99.90
18593;DHT22;9426;54.118;17.948;2022-07-26T01:41:47;18.90;99.90
18593;DHT22;9426;54.118;17.948;2022-07-26T01:47:11;18.80;99.90
18593;DHT22;9426;54.118;17.948;2022-07-26T01:52:34;18.70;99.90
18593;DHT22;9426;54.118;17.948;2022-07-26T01:57:59;18.60;99.90
18593;DHT22;9426;54.118;17.948;2022-07-26T02:03:23;18.50;99.90
18593;DHT22;9426;54.118;17.948;2022-07-26T02:08:46;18.40;99.90
18593;DHT22;9426;54.118;17.948;2022-07-26T02:14:10;18.50;99.90
18593;DHT22;9426;54.118;17.948;2022-07-26T02:19:34;18.60;99.90
18593;DHT22;9426;54.118;17.948;2022-07-26T02:24:58;18.90;99.90
18593;DHT22;9426;54.118;17.948;2022-07-26T02:30:26;19.20;99.90
18593;DHT22;9426;54.118;17.948;2022-07-26T02:35:50;19.50;99.90
18593;DHT22;9426;54.118;17.948;2022-07-26T02:41:13;19.60;99.90
18593;DHT22;9426;54.118;17.948;2022-07-26T02:46:37;19.60;99.90
18593;DHT22;9426;54.118;17.948;2022-07-26T02:57:25;19.60;99.90
18593;DHT22;9426;54.118;17.948;2022-07-26T03:02:50;19.50;99.90
18593;DHT22;9426;54.118;17.948;2022-07-26T03:08:13;19.00;99.90
18593;DHT22;9426;54.118;17.948;2022-07-26T03:13:37;18.60;99.90
18593;DHT22;9426;54.118;17.948;2022-07-26T03:19:02;18.30;99.90
18593;DHT22;9426;54.118;17.948;2022-07-26T03:24:25;18.20;99.90
18593;DHT22;9426;54.118;17.948;2022-07-26T03:29:48;18.10;99.90
18593;DHT22;9426;54.118;17.948;2022-07-26T03:35:13;18.10;99.90
18593;DHT22;9426;54.118;17.948;2022-07-26T03:40:36;18.00;99.90
18593;DHT22;9426;54.118;17.948;2022-07-26T03:45:59;18.00;99.90
18593;DHT22;9426;54.118;17.948;2022-07-26T03:51:24;18.10;99.90
18593;DHT22;9426;54.118;17.948;2022-07-26T03:56:48;18.10;99.90
18593;DHT22;9426;54.118;17.948;2022-07-26T04:02:11;18.10;99.90
18593;DHT22;9426;54.118;17.948;2022-07-26T04:07:41;18.10;99.90
18593;DHT22;9426;54.118;17.948;2022-07-26T04:13:05;18.10;99.90
18593;DHT22;9426;54.118;17.948;2022-07-26T04:18:28;18.20;99.90
18593;DHT22;9426;54.118;17.948;2022-07-26T04:23:53;18.20;99.90
18593;DHT22;9426;54.118;17.948;2022-07-26T04:29:17;18.30;99.90
18593;DHT22;9426;54.118;17.948;2022-07-26T04:34:40;18.30;99.90
18593;DHT22;9426;54.118;17.948;2022-07-26T04:40:07;18.30;99.90
18593;DHT22;9426;54.118;17.948;2022-07-26T04:45:31;18.20;99.90
18593;DHT22;9426;54.118;17.948;2022-07-26T04:50:54;18.10;99.90
18593;DHT22;9426;54.118;17.948;2022-07-26T04:56:19;18.00;99.90
18593;DHT22;9426;54.118;17.948;2022-07-26T05:01:42;18.00;99.90
18593;DHT22;9426;54.118;17.948;2022-07-26T05:07:06;17.90;99.90
18593;DHT22;9426;54.118;17.948;2022-07-26T05:12:30;17.90;99.90
18593;DHT22;9426;54.118;17.948;2022-07-26T05:17:54;17.70;99.90
18593;DHT22;9426;54.118;17.948;2022-07-26T05:23:19;17.60;99.90
18593;DHT22;9426;54.118;17.948;2022-07-26T05:28:43;17.40;99.90
18593;DHT22;9426;54.118;17.948;2022-07-26T05:34:07;17.40;99.90
18593;DHT22;9426;54.118;17.948;2022-07-26T05:39:31;17.40;99.90
18593;DHT22;9426;54.118;17.948;2022-07-26T05:45:00;17.30;99.90
18593;DHT22;9426;54.118;17.948;2022-07-26T05:50:23;17.30;99.90
18593;DHT22;9426;54.118;17.948;2022-07-26T05:55:46;17.40;99.90
18593;DHT22;9426;54.118;17.948;2022-07-26T06:01:11;17.60;99.90
18593;DHT22;9426;54.118;17.948;2022-07-26T06:06:35;17.90;99.90
18593;DHT22;9426;54.118;17.948;2022-07-26T06:11:58;17.90;99.90
18593;DHT22;9426;54.118;17.948;2022-07-26T06:17:24;17.90;99.90
18593;DHT22;9426;54.118;17.948;2022-07-26T06:22:50;17.90;99.90
18593;DHT22;9426;54.118;17.948;2022-07-26T06:28:14;18.00;99.90
18593;DHT22;9426;54.118;17.948;2022-07-26T06:33:38;18.00;99.90
18593;DHT22;9426;54.118;17.948;2022-07-26T06:39:02;18.10;99.90
18593;DHT22;9426;54.118;17.948;2022-07-26T06:44:25;18.00;99.90
18593;DHT22;9426;54.118;17.948;2022-07-26T06:49:50;18.10;99.90
18593;DHT22;9426;54.118;17.948;2022-07-26T06:55:14;18.30;99.90
18593;DHT22;9426;54.118;17.948;2022-07-26T07:00:38;18.40;99.90
18593;DHT22;9426;54.118;17.948;2022-07-26T07:06:03;18.50;99.90
18593;DHT22;9426;54.118;17.948;2022-07-26T07:11:27;18.20;99.90
18593;DHT22;9426;54.118;17.948;2022-07-26T07:16:50;18.30;99.90
18593;DHT22;9426;54.118;17.948;2022-07-26T07:22:15;18.30;99.90
18593;DHT22;9426;54.118;17.948;2022-07-26T07:27:38;18.40;99.90
18593;DHT22;9426;54.118;17.948;2022-07-26T07:33:01;18.60;99.90
18593;DHT22;9426;54.118;17.948;2022-07-26T07:38:26;19.10;99.90
18593;DHT22;9426;54.118;17.948;2022-07-26T07:43:49;18.90;99.90
18593;DHT22;9426;54.118;17.948;2022-07-26T07:49:13;18.90;99.90
18593;DHT22;9426;54.118;17.948;2022-07-26T07:54:38;19.00;99.90
18593;DHT22;9426;54.118;17.948;2022-07-26T08:00:01;19.10;99.90
18593;DHT22;9426;54.118;17.948;2022-07-26T08:05:32;19.60;99.90
18593;DHT22;9426;54.118;17.948;2022-07-26T08:10:57;19.70;99.90
18593;DHT22;9426;54.118;17.948;2022-07-26T08:16:21;19.60;99.90
18593;DHT22;9426;54.118;17.948;2022-07-26T08:21:44;19.90;99.90
18593;DHT22;9426;54.118;17.948;2022-07-26T08:27:09;19.90;99.90
18593;DHT22;9426;54.118;17.948;2022-07-26T08:32:33;19.50;99.90
18593;DHT22;9426;54.118;17.948;2022-07-26T08:37:56;20.00;99.90
18593;DHT22;9426;54.118;17.948;2022-07-26T08:43:22;20.70;99.90
18593;DHT22;9426;54.118;17.948;2022-07-26T08:48:45;20.60;99.90
18593;DHT22;9426;54.118;17.948;2022-07-26T08:54:10;20.40;99.90
18593;DHT22;9426;54.118;17.948;2022-07-26T08:59:35;20.60;99.90
18593;DHT22;9426;54.118;17.948;2022-07-26T09:05:03;20.70;99.90
18593;DHT22;9426;54.118;17.948;2022-07-26T09:10:27;20.40;99.90
18593;DHT22;9426;54.118;17.948;2022-07-26T09:16:10;20.80;99.90
18593;DHT22;9426;54.118;17.948;2022-07-26T09:21:35;21.50;99.90
18593;DHT22;9426;54.118;17.948;2022-07-26T09:26:59;21.50;99.90
18593;DHT22;9426;54.118;17.948;2022-07-26T09:32:25;20.80;99.90
18593;DHT22;9426;54.118;17.948;2022-07-26T09:37:50;21.70;99.90
18593;DHT22;9426;54.118;17.948;2022-07-26T09:43:15;21.40;99.90
18593;DHT22;9426;54.118;17.948;2022-07-26T09:48:41;21.80;99.90
18593;DHT22;9426;54.118;17.948;2022-07-26T09:54:31;21.90;99.90
18593;DHT22;9426;54.118;17.948;2022-07-26T09:59:56;22.00;99.90
18593;DHT22;9426;54.118;17.948;2022-07-26T10:05:22;22.40;99.90
18593;DHT22;9426;54.118;17.948;2022-07-26T10:10:49;21.80;99.90
18593;DHT22;9426;54.118;17.948;2022-07-26T10:16:28;22.00;99.90
18593;DHT22;9426;54.118;17.948;2022-07-26T10:22:21;22.30;99.90
18593;DHT22;9426;54.118;17.948;2022-07-26T10:27:46;22.00;99.90
18593;DHT22;9426;54.118;17.948;2022-07-26T10:33:12;21.80;99.90
18593;DHT22;9426;54.118;17.948;2022-07-26T10:38:39;22.10;99.90
18593;DHT22;9426;54.118;17.948;2022-07-26T10:44:14;22.80;99.90
18593;DHT22;9426;54.118;17.948;2022-07-26T10:49:39;22.70;99.90
18593;DHT22;9426;54.118;17.948;2022-07-26T10:55:06;22.50;99.90
18593;DHT22;9426;54.118;17.948;2022-07-26T11:00:29;22.30;99.90
18593;DHT22;9426;54.118;17.948;2022-07-26T11:05:54;23.00;99.90
18593;DHT22;9426;54.118;17.948;2022-07-26T11:11:28;23.10;99.90
18593;DHT22;9426;54.118;17.948;2022-07-26T11:16:51;22.90;99.90
18593;DHT22;9426;54.118;17.948;2022-07-26T11:22:16;22.50;99.90
18593;DHT22;9426;54.118;17.948;2022-07-26T11:27:57;22.60;99.90
18593;DHT22;9426;54.118;17.948;2022-07-26T11:33:34;22.70;99.90
18593;DHT22;9426;54.118;17.948;2022-07-26T11:38:58;23.70;99.90
18593;DHT22;9426;54.118;17.948;2022-07-26T11:44:23;22.90;99.90
18593;DHT22;9426;54.118;17.948;2022-07-26T11:49:48;22.70;99.90
18593;DHT22;9426;54.118;17.948;2022-07-26T11:55:11;22.70;99.90
18593;DHT22;9426;54.118;17.948;2022-07-26T12:00:36;23.00;99.90
18593;DHT22;9426;54.118;17.948;2022-07-26T12:06:05;23.20;99.90
18593;DHT22;9426;54.118;17.948;2022-07-26T12:11:37;23.40;99.90
18593;DHT22;9426;54.118;17.948;2022-07-26T12:17:14;23.80;99.90
18593;DHT22;9426;54.118;17.948;2022-07-26T12:22:38;25.70;99.90
18593;DHT22;9426;54.118;17.948;2022-07-26T12:28:02;25.40;99.90
18593;DHT22;9426;54.118;17.948;2022-07-26T12:33:29;24.30;99.90
18593;DHT22;9426;54.118;17.948;2022-07-26T12:38:54;23.40;99.90
18593;DHT22;9426;54.118;17.948;2022-07-26T12:44:17;22.70;99.90
18593;DHT22;9426;54.118;17.948;2022-07-26T12:49:47;23.70;99.90
18593;DHT22;9426;54.118;17.948;2022-07-26T12:55:15;24.10;99.90
18593;DHT22;9426;54.118;17.948;2022-07-26T13:00:41;23.50;99.90
18593;DHT22;9426;54.118;17.948;2022-07-26T13:06:07;22.60;99.90
18593;DHT22;9426;54.118;17.948;2022-07-26T13:11:30;22.40;99.90
18593;DHT22;9426;54.118;17.948;2022-07-26T13:16:56;22.10;99.90
18593;DHT22;9426;54.118;17.948;2022-07-26T13:22:23;21.90;99.90
18593;DHT22;9426;54.118;17.948;2022-07-26T13:27:47;21.90;99.90
18593;DHT22;9426;54.118;17.948;2022-07-26T13:33:12;21.90;99.90
18593;DHT22;9426;54.118;17.948;2022-07-26T13:38:39;22.10;99.90
18593;DHT22;9426;54.118;17.948;2022-07-26T13:44:03;22.70;99.90
18593;DHT22;9426;54.118;17.948;2022-07-26T13:49:29;22.90;99.90
18593;DHT22;9426;54.118;17.948;2022-07-26T13:54:54;23.00;99.90
18593;DHT22;9426;54.118;17.948;2022-07-26T14:00:17;22.40;99.90
18593;DHT22;9426;54.118;17.948;2022-07-26T14:05:41;22.30;99.90
18593;DHT22;9426;54.118;17.948;2022-07-26T14:11:06;22.00;99.90
18593;DHT22;9426;54.118;17.948;2022-07-26T14:16:29;23.50;99.90
18593;DHT22;9426;54.118;17.948;2022-07-26T14:21:52;26.50;99.90
18593;DHT22;9426;54.118;17.948;2022-07-26T14:27:17;29.50;96.10
18593;DHT22;9426;54.118;17.948;2022-07-26T14:32:41;28.90;90.40
18593;DHT22;9426;54.118;17.948;2022-07-26T14:38:04;27.30;94.40
18593;DHT22;9426;54.118;17.948;2022-07-26T14:43:29;28.10;90.70
18593;DHT22;9426;54.118;17.948;2022-07-26T14:48:52;26.70;91.90
18593;DHT22;9426;54.118;17.948;2022-07-26T14:54:16;28.40;90.00
18593;DHT22;9426;54.118;17.948;2022-07-26T14:59:40;27.00;90.00
18593;DHT22;9426;54.118;17.948;2022-07-26T15:05:05;26.00;92.10
18593;DHT22;9426;54.118;17.948;2022-07-26T15:10:28;28.00;89.40
18593;DHT22;9426;54.118;17.948;2022-07-26T15:15:53;28.10;85.30
18593;DHT22;9426;54.118;17.948;2022-07-26T15:21:17;25.30;90.60
18593;DHT22;9426;54.118;17.948;2022-07-26T15:26:40;23.60;99.90
18593;DHT22;9426;54.118;17.948;2022-07-26T15:32:05;22.80;99.90
18593;DHT22;9426;54.118;17.948;2022-07-26T15:37:29;22.20;99.90
18593;DHT22;9426;54.118;17.948;2022-07-26T15:42:53;21.90;99.90
18593;DHT22;9426;54.118;17.948;2022-07-26T15:48:18;22.30;99.90
18593;DHT22;9426;54.118;17.948;2022-07-26T15:53:43;22.70;99.90
18593;DHT22;9426;54.118;17.948;2022-07-26T15:59:07;22.30;99.90
18593;DHT22;9426;54.118;17.948;2022-07-26T16:04:33;22.00;99.90
18593;DHT22;9426;54.118;17.948;2022-07-26T16:09:57;21.50;99.90
18593;DHT22;9426;54.118;17.948;2022-07-26T16:15:22;21.30;99.90
18593;DHT22;9426;54.118;17.948;2022-07-26T16:20:48;21.00;99.90
18593;DHT22;9426;54.118;17.948;2022-07-26T16:26:12;20.60;99.90
18593;DHT22;9426;54.118;17.948;2022-07-26T16:31:36;20.30;99.90
18593;DHT22;9426;54.118;17.948;2022-07-26T16:37:03;20.00;99.90
18593;DHT22;9426;54.118;17.948;2022-07-26T16:42:28;19.60;99.90
18593;DHT22;9426;54.118;17.948;2022-07-26T16:47:51;19.30;99.90
18593;DHT22;9426;54.118;17.948;2022-07-26T16:53:19;19.30;99.90
18593;DHT22;9426;54.118;17.948;2022-07-26T16:58:42;19.70;99.90
18593;DHT22;9426;54.118;17.948;2022-07-26T17:04:05;20.30;99.90
18593;DHT22;9426;54.118;17.948;2022-07-26T17:09:30;20.30;99.90
18593;DHT22;9426;54.118;17.948;2022-07-26T17:14:53;19.90;99.90
18593;DHT22;9426;54.118;17.948;2022-07-26T17:20:17;19.60;99.90
18593;DHT22;9426;54.118;17.948;2022-07-26T17:25:44;19.40;99.90
18593;DHT22;9426;54.118;17.948;2022-07-26T17:31:09;19.20;99.90
18593;DHT22;9426;54.118;17.948;2022-07-26T17:36:33;18.90;99.90
18593;DHT22;9426;54.118;17.948;2022-07-26T17:41:58;18.40;99.90
18593;DHT22;9426;54.118;17.948;2022-07-26T17:47:23;18.60;99.90
18593;DHT22;9426;54.118;17.948;2022-07-26T17:52:47;18.40;99.90
18593;DHT22;9426;54.118;17.948;2022-07-26T17:58:13;18.30;99.90
18593;DHT22;9426;54.118;17.948;2022-07-26T18:03:37;18.10;99.90
18593;DHT22;9426;54.118;17.948;2022-07-26T18:09:00;18.00;99.90
18593;DHT22;9426;54.118;17.948;2022-07-26T18:14:29;17.90;99.90
18593;DHT22;9426;54.118;17.948;2022-07-26T18:19:53;17.70;99.90
18593;DHT22;9426;54.118;17.948;2022-07-26T18:25:20;17.60;99.90
18593;DHT22;9426;54.118;17.948;2022-07-26T18:30:45;17.50;99.90
18593;DHT22;9426;54.118;17.948;2022-07-26T18:36:09;17.40;99.90
18593;DHT22;9426;54.118;17.948;2022-07-26T18:41:33;17.30;99.90
18593;DHT22;9426;54.118;17.948;2022-07-26T18:46:58;17.20;99.90
18593;DHT22;9426;54.118;17.948;2022-07-26T18:52:21;17.10;99.90
18593;DHT22;9426;54.118;17.948;2022-07-26T18:57:44;17.00;99.90
18593;DHT22;9426;54.118;17.948;2022-07-26T19:03:09;16.90;99.90
18593;DHT22;9426;54.118;17.948;2022-07-26T19:08:33;16.80;99.90
18593;DHT22;9426;54.118;17.948;2022-07-26T19:13:56;16.50;99.90
18593;DHT22;9426;54.118;17.948;2022-07-26T19:19:21;16.20;99.90
18593;DHT22;9426;54.118;17.948;2022-07-26T19:24:45;16.00;99.90
18593;DHT22;9426;54.118;17.948;2022-07-26T19:30:09;15.80;99.90
18593;DHT22;9426;54.118;17.948;2022-07-26T19:35:34;15.60;99.90
18593;DHT22;9426;54.118;17.948;2022-07-26T19:40:58;15.50;99.90
18593;DHT22;9426;54.118;17.948;2022-07-26T19:46:22;15.30;99.90
18593;DHT22;9426;54.118;17.948;2022-07-26T19:51:47;15.20;99.90
18593;DHT22;9426;54.118;17.948;2022-07-26T19:57:10;15.00;99.90
18593;DHT22;9426;54.118;17.948;2022-07-26T20:02:34;14.80;99.90
18593;DHT22;9426;54.118;17.948;2022-07-26T20:07:59;14.70;99.90
18593;DHT22;9426;54.118;17.948;2022-07-26T20:13:22;14.50;99.90
18593;DHT22;9426;54.118;17.948;2022-07-26T20:18:46;14.40;99.90
18593;DHT22;9426;54.118;17.948;2022-07-26T20:24:11;14.30;99.90
18593;DHT22;9426;54.118;17.948;2022-07-26T20:29:35;14.20;99.90
18593;DHT22;9426;54.118;17.948;2022-07-26T20:34:58;14.10;99.90
18593;DHT22;9426;54.118;17.948;2022-07-26T20:40:23;14.00;99.90
18593;DHT22;9426;54.118;17.948;2022-07-26T20:45:49;14.00;99.90
18593;DHT22;9426;54.118;17.948;2022-07-26T20:51:13;14.00;99.90
18593;DHT22;9426;54.118;17.948;2022-07-26T20:56:38;13.90;99.90
18593;DHT22;9426;54.118;17.948;2022-07-26T21:02:02;13.80;99.90
18593;DHT22;9426;54.118;17.948;2022-07-26T21:07:25;13.70;99.90
18593;DHT22;9426;54.118;17.948;2022-07-26T21:12:51;13.70;99.90
18593;DHT22;9426;54.118;17.948;2022-07-26T21:18:18;13.50;99.90
18593;DHT22;9426;54.118;17.948;2022-07-26T21:23:41;13.40;99.90
18593;DHT22;9426;54.118;17.948;2022-07-26T21:29:06;13.40;99.90
18593;DHT22;9426;54.118;17.948;2022-07-26T21:34:30;13.40;99.90
18593;DHT22;9426;54.118;17.948;2022-07-26T21:39:55;13.30;99.90
18593;DHT22;9426;54.118;17.948;2022-07-26T21:45:19;13.30;99.90
18593;DHT22;9426;54.118;17.948;2022-07-26T21:50:43;13.20;99.90
18593;DHT22;9426;54.118;17.948;2022-07-26T21:56:06;13.10;99.90
18593;DHT22;9426;54.118;17.948;2022-07-26T22:01:31;13.00;99.90
18593;DHT22;9426;54.118;17.948;2022-07-26T22:06:55;12.90;99.90
18593;DHT22;9426;54.118;17.948;2022-07-26T22:12:18;12.80;99.90
18593;DHT22;9426;54.118;17.948;2022-07-26T22:17:43;12.70;99.90
18593;DHT22;9426;54.118;17.948;2022-07-26T22:23:09;12.60;99.90
18593;DHT22;9426;54.118;17.948;2022-07-26T22:28:34;12.60;99.90
18593;DHT22;9426;54.118;17.948;2022-07-26T22:34:00;12.50;99.90
18593;DHT22;9426;54.118;17.948;2022-07-26T22:39:24;12.40;99.90
18593;DHT22;9426;54.118;17.948;2022-07-26T22:44:47;12.40;99.90
18593;DHT22;9426;54.118;17.948;2022-07-26T22:50:12;12.30;99.90
18593;DHT22;9426;54.118;17.948;2022-07-26T22:55:35;12.20;99.90
18593;DHT22;9426;54.118;17.948;2022-07-26T23:00:59;12.20;99.90
18593;DHT22;9426;54.118;17.948;2022-07-26T23:06:23;12.20;99.90
18593;DHT22;9426;54.118;17.948;2022-07-26T23:11:47;12.20;99.90
18593;DHT22;9426;54.118;17.948;2022-07-26T23:17:10;12.10;99.90
18593;DHT22;9426;54.118;17.948;2022-07-26T23:22:34;12.10;99.90
18593;DHT22;9426;54.118;17.948;2022-07-26T23:27:59;12.00;99.90
18593;DHT22;9426;54.118;17.948;2022-07-26T23:33:22;11.80;99.90
18593;DHT22;9426;54.118;17.948;2022-07-26T23:38:47;11.80;99.90
18593;DHT22;9426;54.118;17.948;2022-07-26T23:44:11;11.80;99.90
18593;DHT22;9426;54.118;17.948;2022-07-26T23:49:35;11.70;99.90
18593;DHT22;9426;54.118;17.948;2022-07-26T23:54:59;11.60;99.90
